sensor_id;sensor_type;location;lat;lon;timestamp;pressure;altitude;pressure_sealevel;temperature;humidity
43818;BME280;29868;47.360;18.984;2023-10-31T12:49:18;62999.75;;;14.76;100.00
43818;BME280;29868;47.360;18.984;2023-10-31T12:52:00;63002.34;;;14.76;100.00
43818;BME280;29868;47.360;18.984;2023-10-31T12:54:34;63005.94;;;14.81;100.00
43818;BME280;29868;47.360;18.984;2023-10-31T12:57:04;63009.06;;;14.82;100.00
43818;BME280;29868;47.360;18.984;2023-10-31T12:59:31;63005.56;;;14.83;100.00
43818;BME280;29868;47.360;18.984;2023-10-31T13:01:56;63005.56;;;14.83;100.00
43818;BME280;29868;47.360;18.984;2023-10-31T13:04:29;63016.34;;;14.89;100.00
43818;BME280;29868;47.360;18.984;2023-10-31T13:06:58;63019.72;;;14.92;100.00
43818;BME280;29868;47.360;18.984;2023-10-31T13:09:28;63004.78;;;14.80;100.00
43818;BME280;29868;47.360;18.984;2023-10-31T13:11:57;62997.72;;;14.76;100.00
43818;BME280;29868;47.360;18.984;2023-10-31T13:14:22;62997.84;;;14.72;100.00
43818;BME280;29868;47.360;18.984;2023-10-31T13:16:48;62997.84;;;14.72;100.00
43818;BME280;29868;47.360;18.984;2023-10-31T13:19:13;63004.78;;;14.80;100.00
43818;BME280;29868;47.360;18.984;2023-10-31T13:21:38;63000.66;;;14.74;100.00
43818;BME280;29868;47.360;18.984;2023-10-31T13:24:04;63002.56;;;14.78;100.00
43818;BME280;29868;47.360;18.984;2023-10-31T13:26:30;63006.25;;;14.79;100.00
43818;BME280;29868;47.360;18.984;2023-10-31T13:28:55;62989.09;;;14.66;100.00
43818;BME280;29868;47.360;18.984;2023-10-31T13:31:21;62981.25;;;14.59;100.00
43818;BME280;29868;47.360;18.984;2023-10-31T13:33:46;62979.78;;;14.60;100.00
43818;BME280;29868;47.360;18.984;2023-10-31T13:36:11;62970.03;;;14.49;100.00
43818;BME280;29868;47.360;18.984;2023-10-31T13:38:37;62953.22;;;14.33;100.00
43818;BME280;29868;47.360;18.984;2023-10-31T13:41:03;62943.88;;;14.27;100.00
43818;BME280;29868;47.360;18.984;2023-10-31T13:43:29;62936.03;;;14.20;100.00
43818;BME280;29868;47.360;18.984;2023-10-31T13:45:54;62935.63;;;14.15;100.00
43818;BME280;29868;47.360;18.984;2023-10-31T13:48:20;62925.19;;;14.08;100.00
43818;BME280;29868;47.360;18.984;2023-10-31T13:50:45;62894.94;;;13.80;100.00
43818;BME280;29868;47.360;18.984;2023-10-31T13:53:11;62890.09;;;13.78;100.00
43818;BME280;29868;47.360;18.984;2023-10-31T13:55:37;62893.59;;;13.77;100.00
43818;BME280;29868;47.360;18.984;2023-10-31T13:58:02;62868.84;;;13.59;100.00
43818;BME280;29868;47.360;18.984;2023-10-31T14:00:27;62870.31;;;13.58;100.00
43818;BME280;29868;47.360;18.984;2023-10-31T14:02:53;62866.72;;;13.52;100.00
43818;BME280;29868;47.360;18.984;2023-10-31T14:05:18;62852.03;;;13.44;100.00
43818;BME280;29868;47.360;18.984;2023-10-31T14:07:44;62841.97;;;13.34;100.00
43818;BME280;29868;47.360;18.984;2023-10-31T14:10:09;62829.19;;;13.18;100.00
43818;BME280;29868;47.360;18.984;2023-10-31T14:12:34;62825.72;;;13.20;100.00
43818;BME280;29868;47.360;18.984;2023-10-31T14:15:00;62817.44;;;13.07;100.00
43818;BME280;29868;47.360;18.984;2023-10-31T14:17:25;62819.91;;;13.12;100.00
43818;BME280;29868;47.360;18.984;2023-10-31T14:19:51;62806.13;;;13.02;100.00
43818;BME280;29868;47.360;18.984;2023-10-31T14:22:17;62830.31;;;13.19;100.00
43818;BME280;29868;47.360;18.984;2023-10-31T14:24:42;62821.78;;;13.16;100.00
43818;BME280;29868;47.360;18.984;2023-10-31T14:27:08;62817.53;;;13.14;100.00
43818;BME280;29868;47.360;18.984;2023-10-31T14:29:34;62813.16;;;13.06;100.00
43818;BME280;29868;47.360;18.984;2023-10-31T14:32:08;62815.75;;;13.06;100.00
43818;BME280;29868;47.360;18.984;2023-10-31T14:34:34;62812.84;;;13.08;100.00
43818;BME280;29868;47.360;18.984;2023-10-31T14:36:59;62824.16;;;13.13;100.00
43818;BME280;29868;47.360;18.984;2023-10-31T14:39:25;62824.00;;;13.18;100.00
43818;BME280;29868;47.360;18.984;2023-10-31T14:41:50;62831.88;;;13.25;100.00
43818;BME280;29868;47.360;18.984;2023-10-31T14:44:16;62849.38;;;13.36;100.00
43818;BME280;29868;47.360;18.984;2023-10-31T14:46:41;62838.59;;;13.31;100.00
43818;BME280;29868;47.360;18.984;2023-10-31T14:49:06;62856.88;;;13.46;100.00
43818;BME280;29868;47.360;18.984;2023-10-31T14:51:32;62861.34;;;13.50;100.00
43818;BME280;29868;47.360;18.984;2023-10-31T14:53:57;62862.81;;;13.49;100.00
43818;BME280;29868;47.360;18.984;2023-10-31T14:56:23;62853.16;;;13.45;100.00
43818;BME280;29868;47.360;18.984;2023-10-31T14:58:49;62849.25;;;13.41;100.00
43818;BME280;29868;47.360;18.984;2023-10-31T15:01:15;62854.06;;;13.43;100.00
43818;BME280;29868;47.360;18.984;2023-10-31T15:03:41;62860.56;;;13.47;100.00
43818;BME280;29868;47.360;18.984;2023-10-31T15:06:07;62849.25;;;13.41;100.00
43818;BME280;29868;47.360;18.984;2023-10-31T15:08:33;62847.00;;;13.39;100.00
43818;BME280;29868;47.360;18.984;2023-10-31T15:10:58;62859.44;;;13.46;100.00
43818;BME280;29868;47.360;18.984;2023-10-31T15:13:24;62851.63;;;13.38;100.00
43818;BME280;29868;47.360;18.984;2023-10-31T15:15:49;62837.81;;;13.28;100.00
43818;BME280;29868;47.360;18.984;2023-10-31T15:18:15;62812.28;;;13.07;100.00
43818;BME280;29868;47.360;18.984;2023-10-31T15:20:40;62813.94;;;13.09;100.00
43818;BME280;29868;47.360;18.984;2023-10-31T15:23:06;62810.59;;;13.06;100.00
43818;BME280;29868;47.360;18.984;2023-10-31T15:25:31;62820.47;;;13.12;100.00
43818;BME280;29868;47.360;18.984;2023-10-31T15:27:56;62812.84;;;13.08;100.00
43818;BME280;29868;47.360;18.984;2023-10-31T15:30:22;62815.19;;;13.05;100.00
43818;BME280;29868;47.360;18.984;2023-10-31T15:32:47;62810.16;;;13.01;100.00
43818;BME280;29868;47.360;18.984;2023-10-31T15:35:13;62811.72;;;13.07;100.00
43818;BME280;29868;47.360;18.984;2023-10-31T15:37:38;62808.38;;;13.04;100.00
43818;BME280;29868;47.360;18.984;2023-10-31T15:40:04;62825.28;;;13.14;100.00
43818;BME280;29868;47.360;18.984;2023-10-31T15:42:30;62835.38;;;13.24;100.00
43818;BME280;29868;47.360;18.984;2023-10-31T15:44:56;62834.69;;;13.28;100.00
43818;BME280;29868;47.360;18.984;2023-10-31T15:47:22;62811.84;;;13.02;100.00
43818;BME280;29868;47.360;18.984;2023-10-31T15:49:48;62820.22;;;13.10;100.00
43818;BME280;29868;47.360;18.984;2023-10-31T15:52:14;62802.34;;;12.94;100.00
43818;BME280;29868;47.360;18.984;2023-10-31T15:54:40;62799.75;;;12.94;100.00
43818;BME280;29868;47.360;18.984;2023-10-31T15:57:06;62780.94;;;12.79;100.00
43818;BME280;29868;47.360;18.984;2023-10-31T15:59:32;62778.25;;;12.72;100.00
43818;BME280;29868;47.360;18.984;2023-10-31T16:01:57;62778.13;;;12.76;100.00
43818;BME280;29868;47.360;18.984;2023-10-31T16:04:23;62765.97;;;12.60;100.00
43818;BME280;29868;47.360;18.984;2023-10-31T16:06:49;62773.56;;;12.65;100.00
43818;BME280;29868;47.360;18.984;2023-10-31T16:09:14;62759.47;;;12.57;100.00
43818;BME280;29868;47.360;18.984;2023-10-31T16:11:40;62760.38;;;12.55;100.00
43818;BME280;29868;47.360;18.984;2023-10-31T16:14:05;62756.44;;;12.52;100.00
43818;BME280;29868;47.360;18.984;2023-10-31T16:16:31;62740.09;;;12.41;100.00
43818;BME280;29868;47.360;18.984;2023-10-31T16:18:56;62732.25;;;12.34;100.00
43818;BME280;29868;47.360;18.984;2023-10-31T16:21:22;62730.72;;;12.28;100.00
43818;BME280;29868;47.360;18.984;2023-10-31T16:23:49;62727.00;;;12.27;100.00
43818;BME280;29868;47.360;18.984;2023-10-31T16:26:19;62722.53;;;12.23;100.00
43818;BME280;29868;47.360;18.984;2023-10-31T16:28:45;62718.63;;;12.20;100.00
43818;BME280;29868;47.360;18.984;2023-10-31T16:31:12;62723.13;;;12.24;100.00
43818;BME280;29868;47.360;18.984;2023-10-31T16:33:39;62705.22;;;12.07;100.00
43818;BME280;29868;47.360;18.984;2023-10-31T16:36:05;62703.88;;;12.04;100.00
43818;BME280;29868;47.360;18.984;2023-10-31T16:38:31;62705.34;;;12.03;100.00
43818;BME280;29868;47.360;18.984;2023-10-31T16:40:56;62694.59;;;11.98;100.00
43818;BME280;29868;47.360;18.984;2023-10-31T16:43:21;62688.44;;;11.92;100.00
43818;BME280;29868;47.360;18.984;2023-10-31T16:45:47;62687.31;;;11.91;100.00
43818;BME280;29868;47.360;18.984;2023-10-31T16:48:13;62686.00;;;11.87;100.00
43818;BME280;29868;47.360;18.984;2023-10-31T16:50:38;62686.41;;;11.92;100.00
43818;BME280;29868;47.360;18.984;2023-10-31T16:53:04;62685.88;;;11.92;100.00
43818;BME280;29868;47.360;18.984;2023-10-31T16:55:31;62672.44;;;11.80;100.00
43818;BME280;29868;47.360;18.984;2023-10-31T16:57:56;62676.69;;;11.81;100.00
43818;BME280;29868;47.360;18.984;2023-10-31T17:00:22;62686.53;;;11.88;100.00
43818;BME280;29868;47.360;18.984;2023-10-31T17:02:48;62685.09;;;11.89;100.00
43818;BME280;29868;47.360;18.984;2023-10-31T17:05:13;62671.44;;;11.74;100.00
43818;BME280;29868;47.360;18.984;2023-10-31T17:07:39;62675.78;;;11.83;100.00
43818;BME280;29868;47.360;18.984;2023-10-31T17:10:05;62679.50;;;11.84;100.00
43818;BME280;29868;47.360;18.984;2023-10-31T17:12:30;62677.03;;;11.79;100.00
43818;BME280;29868;47.360;18.984;2023-10-31T17:14:56;62687.09;;;11.88;100.00
43818;BME280;29868;47.360;18.984;2023-10-31T17:17:21;62683.63;;;11.90;100.00
43818;BME280;29868;47.360;18.984;2023-10-31T17:19:47;62690.13;;;11.93;100.00
43818;BME280;29868;47.360;18.984;2023-10-31T17:22:13;62693.69;;;11.99;100.00
43818;BME280;29868;47.360;18.984;2023-10-31T17:24:38;62709.47;;;12.09;100.00
43818;BME280;29868;47.360;18.984;2023-10-31T17:27:04;62713.59;;;12.15;100.00
43818;BME280;29868;47.360;18.984;2023-10-31T17:29:29;62720.31;;;12.21;100.00
43818;BME280;29868;47.360;18.984;2023-10-31T17:31:55;62722.75;;;12.26;100.00
43818;BME280;29868;47.360;18.984;2023-10-31T17:34:20;62715.06;;;12.14;100.00
43818;BME280;29868;47.360;18.984;2023-10-31T17:36:46;62722.53;;;12.23;100.00
43818;BME280;29868;47.360;18.984;2023-10-31T17:39:11;62719.41;;;12.23;100.00
43818;BME280;29868;47.360;18.984;2023-10-31T17:41:38;62725.00;;;12.28;100.00
43818;BME280;29868;47.360;18.984;2023-10-31T17:44:03;62737.09;;;12.36;100.00
43818;BME280;29868;47.360;18.984;2023-10-31T17:46:29;62737.31;;;12.39;100.00
43818;BME280;29868;47.360;18.984;2023-10-31T17:48:54;62737.09;;;12.36;100.00
43818;BME280;29868;47.360;18.984;2023-10-31T17:51:20;62736.19;;;12.38;100.00
43818;BME280;29868;47.360;18.984;2023-10-31T17:53:45;62737.88;;;12.39;100.00
43818;BME280;29868;47.360;18.984;2023-10-31T17:56:11;62742.69;;;12.41;100.00
43818;BME280;29868;47.360;18.984;2023-10-31T17:58:36;62734.50;;;12.36;100.00
43818;BME280;29868;47.360;18.984;2023-10-31T18:01:03;62745.25;;;12.41;100.00
43818;BME280;29868;47.360;18.984;2023-10-31T18:03:28;62732.94;;;12.30;100.00
43818;BME280;29868;47.360;18.984;2023-10-31T18:05:54;62744.56;;;12.46;100.00
43818;BME280;29868;47.360;18.984;2023-10-31T18:08:19;62746.41;;;12.43;100.00
43818;BME280;29868;47.360;18.984;2023-10-31T18:10:44;62744.56;;;12.46;100.00
43818;BME280;29868;47.360;18.984;2023-10-31T18:13:10;62742.69;;;12.41;100.00
43818;BME280;29868;47.360;18.984;2023-10-31T18:15:35;62727.38;;;12.25;100.00
43818;BME280;29868;47.360;18.984;2023-10-31T18:18:00;62711.03;;;12.15;100.00
43818;BME280;29868;47.360;18.984;2023-10-31T18:20:26;62705.00;;;12.05;100.00
43818;BME280;29868;47.360;18.984;2023-10-31T18:22:51;62688.78;;;11.90;100.00
43818;BME280;29868;47.360;18.984;2023-10-31T18:25:17;62677.22;;;11.82;100.00
43818;BME280;29868;47.360;18.984;2023-10-31T18:27:42;62673.66;;;11.76;100.00
43818;BME280;29868;47.360;18.984;2023-10-31T18:30:08;62668.50;;;11.76;100.00
43818;BME280;29868;47.360;18.984;2023-10-31T18:32:34;62648.41;;;11.58;100.00
43818;BME280;29868;47.360;18.984;2023-10-31T18:34:59;62646.50;;;11.54;100.00
43818;BME280;29868;47.360;18.984;2023-10-31T18:37:24;62638.91;;;11.49;100.00
43818;BME280;29868;47.360;18.984;2023-10-31T18:39:50;62637.34;;;11.43;100.00
43818;BME280;29868;47.360;18.984;2023-10-31T18:42:16;62626.59;;;11.38;100.00
43818;BME280;29868;47.360;18.984;2023-10-31T18:44:42;62621.91;;;11.31;100.00
43818;BME280;29868;47.360;18.984;2023-10-31T18:47:09;62618.22;;;11.30;100.00
43818;BME280;29868;47.360;18.984;2023-10-31T18:49:34;62623.59;;;11.33;100.00
43818;BME280;29868;47.360;18.984;2023-10-31T18:51:59;62617.44;;;11.27;100.00
43818;BME280;29868;47.360;18.984;2023-10-31T18:54:25;62621.59;;;11.33;100.00
43818;BME280;29868;47.360;18.984;2023-10-31T18:56:51;62617.44;;;11.27;100.00
43818;BME280;29868;47.360;18.984;2023-10-31T18:59:22;62607.59;;;11.20;100.00
43818;BME280;29868;47.360;18.984;2023-10-31T19:01:47;62597.00;;;11.11;100.00
43818;BME280;29868;47.360;18.984;2023-10-31T19:04:13;62583.59;;;10.99;100.00
43818;BME280;29868;47.360;18.984;2023-10-31T19:06:42;62597.00;;;11.11;100.00
43818;BME280;29868;47.360;18.984;2023-10-31T19:09:07;62603.25;;;11.12;100.00
43818;BME280;29868;47.360;18.984;2023-10-31T19:11:35;62591.41;;;11.06;100.00
43818;BME280;29868;47.360;18.984;2023-10-31T19:14:00;62588.97;;;11.01;100.00
43818;BME280;29868;47.360;18.984;2023-10-31T19:16:26;62576.13;;;10.89;100.00
43818;BME280;29868;47.360;18.984;2023-10-31T19:18:53;62579.47;;;10.92;100.00
43818;BME280;29868;47.360;18.984;2023-10-31T19:21:18;62585.94;;;10.96;100.00
43818;BME280;29868;47.360;18.984;2023-10-31T19:23:43;62578.34;;;10.91;100.00
43818;BME280;29868;47.360;18.984;2023-10-31T19:26:09;62573.91;;;10.87;100.00
43818;BME280;29868;47.360;18.984;2023-10-31T19:28:34;62580.03;;;10.93;100.00
43818;BME280;29868;47.360;18.984;2023-10-31T19:31:00;62560.28;;;10.73;100.00
43818;BME280;29868;47.360;18.984;2023-10-31T19:33:25;62564.19;;;10.76;100.00
43818;BME280;29868;47.360;18.984;2023-10-31T19:35:50;62549.31;;;10.65;100.00
43818;BME280;29868;47.360;18.984;2023-10-31T19:38:16;62561.38;;;10.74;100.00
43818;BME280;29868;47.360;18.984;2023-10-31T19:40:42;62566.06;;;10.80;100.00
43818;BME280;29868;47.360;18.984;2023-10-31T19:43:07;62564.59;;;10.81;100.00
43818;BME280;29868;47.360;18.984;2023-10-31T19:45:32;62564.50;;;10.74;100.00
43818;BME280;29868;47.360;18.984;2023-10-31T19:47:58;62560.28;;;10.73;100.00
43818;BME280;29868;47.360;18.984;2023-10-31T19:50:23;62548.97;;;10.67;100.00
43818;BME280;29868;47.360;18.984;2023-10-31T19:52:49;62554.56;;;10.72;100.00
43818;BME280;29868;47.360;18.984;2023-10-31T19:55:16;62555.69;;;10.73;100.00
43818;BME280;29868;47.360;18.984;2023-10-31T19:57:43;62559.03;;;10.76;100.00
43818;BME280;29868;47.360;18.984;2023-10-31T20:00:10;62546.75;;;10.65;100.00
43818;BME280;29868;47.360;18.984;2023-10-31T20:02:36;62564.06;;;10.81;100.00
43818;BME280;29868;47.360;18.984;2023-10-31T20:05:01;62564.19;;;10.76;100.00
43818;BME280;29868;47.360;18.984;2023-10-31T20:07:28;62562.72;;;10.77;100.00
43818;BME280;29868;47.360;18.984;2023-10-31T20:09:53;62575.34;;;10.86;100.00
43818;BME280;29868;47.360;18.984;2023-10-31T20:12:19;62570.53;;;10.84;100.00
43818;BME280;29868;47.360;18.984;2023-10-31T20:14:44;62572.75;;;10.86;100.00
43818;BME280;29868;47.360;18.984;2023-10-31T20:17:10;62565.72;;;10.82;100.00
43818;BME280;29868;47.360;18.984;2023-10-31T20:19:35;62579.47;;;10.92;100.00
43818;BME280;29868;47.360;18.984;2023-10-31T20:22:01;62580.59;;;10.93;100.00
43818;BME280;29868;47.360;18.984;2023-10-31T20:24:26;62594.75;;;11.09;100.00
43818;BME280;29868;47.360;18.984;2023-10-31T20:26:51;62595.13;;;11.07;100.00
43818;BME280;29868;47.360;18.984;2023-10-31T20:29:17;62604.38;;;11.13;100.00
43818;BME280;29868;47.360;18.984;2023-10-31T20:31:42;62600.13;;;11.11;100.00
43818;BME280;29868;47.360;18.984;2023-10-31T20:34:08;62593.41;;;11.05;100.00
43818;BME280;29868;47.360;18.984;2023-10-31T20:36:33;62597.88;;;11.09;100.00
43818;BME280;29868;47.360;18.984;2023-10-31T20:38:59;62586.19;;;10.99;100.00
43818;BME280;29868;47.360;18.984;2023-10-31T20:41:24;62581.91;;;10.97;100.00
43818;BME280;29868;47.360;18.984;2023-10-31T20:43:50;62579.13;;;10.94;100.00
43818;BME280;29868;47.360;18.984;2023-10-31T20:46:17;62573.91;;;10.87;100.00
43818;BME280;29868;47.360;18.984;2023-10-31T20:48:42;62578.69;;;10.89;100.00
43818;BME280;29868;47.360;18.984;2023-10-31T20:51:08;62582.03;;;10.92;100.00
43818;BME280;29868;47.360;18.984;2023-10-31T20:53:33;62588.75;;;10.99;100.00
43818;BME280;29868;47.360;18.984;2023-10-31T20:55:59;62579.47;;;10.92;100.00
43818;BME280;29868;47.360;18.984;2023-10-31T20:58:28;62591.19;;;11.03;100.00
43818;BME280;29868;47.360;18.984;2023-10-31T21:00:53;62578.00;;;10.93;100.00
43818;BME280;29868;47.360;18.984;2023-10-31T21:03:18;62591.19;;;11.03;100.00
43818;BME280;29868;47.360;18.984;2023-10-31T21:05:44;62584.72;;;11.00;100.00
43818;BME280;29868;47.360;18.984;2023-10-31T21:08:09;62586.25;;;11.06;100.00
43818;BME280;29868;47.360;18.984;2023-10-31T21:10:35;62595.13;;;11.07;100.00
43818;BME280;29868;47.360;18.984;2023-10-31T21:13:01;62596.22;;;11.08;100.00
43818;BME280;29868;47.360;18.984;2023-10-31T21:15:26;62591.75;;;11.04;100.00
43818;BME280;29868;47.360;18.984;2023-10-31T21:17:51;62588.19;;;10.98;100.00
43818;BME280;29868;47.360;18.984;2023-10-31T21:20:17;62583.94;;;10.96;100.00
43818;BME280;29868;47.360;18.984;2023-10-31T21:22:43;62584.72;;;11.00;100.00
43818;BME280;29868;47.360;18.984;2023-10-31T21:25:09;62585.41;;;10.95;100.00
43818;BME280;29868;47.360;18.984;2023-10-31T21:27:34;62579.13;;;10.94;100.00
43818;BME280;29868;47.360;18.984;2023-10-31T21:30:00;62579.47;;;10.92;100.00
43818;BME280;29868;47.360;18.984;2023-10-31T21:32:25;62572.97;;;10.89;100.00
43818;BME280;29868;47.360;18.984;2023-10-31T21:34:52;62568.66;;;10.80;100.00
43818;BME280;29868;47.360;18.984;2023-10-31T21:37:18;62563.50;;;10.80;100.00
43818;BME280;29868;47.360;18.984;2023-10-31T21:39:43;62562.94;;;10.80;100.00
43818;BME280;29868;47.360;18.984;2023-10-31T21:42:09;62549.31;;;10.65;100.00
43818;BME280;29868;47.360;18.984;2023-10-31T21:44:34;62539.81;;;10.56;100.00
43818;BME280;29868;47.360;18.984;2023-10-31T21:47:00;62536.69;;;10.56;100.00
43818;BME280;29868;47.360;18.984;2023-10-31T21:49:26;62530.00;;;10.50;100.00
43818;BME280;29868;47.360;18.984;2023-10-31T21:51:52;62528.13;;;10.45;100.00
43818;BME280;29868;47.360;18.984;2023-10-31T21:54:19;62536.25;;;10.51;100.00
43818;BME280;29868;47.360;18.984;2023-10-31T21:56:45;62536.47;;;10.53;100.00
43818;BME280;29868;47.360;18.984;2023-10-31T21:59:10;62544.84;;;10.61;100.00
43818;BME280;29868;47.360;18.984;2023-10-31T22:01:36;62536.69;;;10.56;100.00
43818;BME280;29868;47.360;18.984;2023-10-31T22:04:01;62534.56;;;10.49;100.00
43818;BME280;29868;47.360;18.984;2023-10-31T22:06:26;62533.34;;;10.53;100.00
43818;BME280;29868;47.360;18.984;2023-10-31T22:08:52;62536.69;;;10.56;100.00
43818;BME280;29868;47.360;18.984;2023-10-31T22:11:19;62541.50;;;10.58;100.00
43818;BME280;29868;47.360;18.984;2023-10-31T22:13:44;62552.88;;;10.70;100.00
43818;BME280;29868;47.360;18.984;2023-10-31T22:16:10;62556.78;;;10.74;100.00
43818;BME280;29868;47.360;18.984;2023-10-31T22:18:35;62548.53;;;10.62;100.00
43818;BME280;29868;47.360;18.984;2023-10-31T22:21:01;62543.41;;;10.62;100.00
43818;BME280;29868;47.360;18.984;2023-10-31T22:23:26;62556.56;;;10.71;100.00
43818;BME280;29868;47.360;18.984;2023-10-31T22:25:52;62559.72;;;10.72;100.00
43818;BME280;29868;47.360;18.984;2023-10-31T22:28:17;62562.50;;;10.75;100.00
43818;BME280;29868;47.360;18.984;2023-10-31T22:30:42;62560.69;;;10.78;100.00
43818;BME280;29868;47.360;18.984;2023-10-31T22:33:08;62565.16;;;10.82;100.00
43818;BME280;29868;47.360;18.984;2023-10-31T22:35:33;62557.91;;;10.75;100.00
43818;BME280;29868;47.360;18.984;2023-10-31T22:37:59;62557.13;;;10.72;100.00
43818;BME280;29868;47.360;18.984;2023-10-31T22:40:24;62563.03;;;10.75;100.00
43818;BME280;29868;47.360;18.984;2023-10-31T22:42:50;62546.53;;;10.62;100.00
43818;BME280;29868;47.360;18.984;2023-10-31T22:45:15;62553.78;;;10.69;100.00
43818;BME280;29868;47.360;18.984;2023-10-31T22:47:41;62546.31;;;10.60;100.00
43818;BME280;29868;47.360;18.984;2023-10-31T22:50:09;62561.94;;;10.74;100.00
43818;BME280;29868;47.360;18.984;2023-10-31T22:52:35;62553.56;;;10.66;100.00
43818;BME280;29868;47.360;18.984;2023-10-31T22:55:00;62543.94;;;10.62;100.00
43818;BME280;29868;47.360;18.984;2023-10-31T22:57:26;62546.31;;;10.60;100.00
43818;BME280;29868;47.360;18.984;2023-10-31T22:59:51;62540.38;;;10.57;100.00
43818;BME280;29868;47.360;18.984;2023-10-31T23:02:16;62543.94;;;10.62;100.00
43818;BME280;29868;47.360;18.984;2023-10-31T23:04:44;62533.91;;;10.53;100.00
43818;BME280;29868;47.360;18.984;2023-10-31T23:07:09;62529.44;;;10.49;100.00
43818;BME280;29868;47.360;18.984;2023-10-31T23:09:34;62537.59;;;10.54;100.00
43818;BME280;29868;47.360;18.984;2023-10-31T23:12:00;62528.66;;;10.46;100.00
43818;BME280;29868;47.360;18.984;2023-10-31T23:14:27;62523.63;;;10.41;100.00
43818;BME280;29868;47.360;18.984;2023-10-31T23:16:52;62515.47;;;10.36;100.00
43818;BME280;29868;47.360;18.984;2023-10-31T23:19:18;62504.97;;;10.22;100.00
43818;BME280;29868;47.360;18.984;2023-10-31T23:21:44;62489.91;;;10.08;100.00
43818;BME280;29868;47.360;18.984;2023-10-31T23:24:09;62492.13;;;10.10;100.00
43818;BME280;29868;47.360;18.984;2023-10-31T23:26:35;62494.94;;;10.13;100.00
43818;BME280;29868;47.360;18.984;2023-10-31T23:29:00;62471.59;;;9.98;100.00
43818;BME280;29868;47.360;18.984;2023-10-31T23:31:25;62481.31;;;9.98;100.00
43818;BME280;29868;47.360;18.984;2023-10-31T23:33:51;62458.53;;;9.84;100.00
43818;BME280;29868;47.360;18.984;2023-10-31T23:36:16;62440.69;;;9.68;100.00
43818;BME280;29868;47.360;18.984;2023-10-31T23:38:42;62425.44;;;9.52;100.00
43818;BME280;29868;47.360;18.984;2023-10-31T23:41:07;62426.53;;;9.53;100.00
43818;BME280;29868;47.360;18.984;2023-10-31T23:43:35;62425.97;;;9.52;100.00
43818;BME280;29868;47.360;18.984;2023-10-31T23:46:00;62416.84;;;9.41;100.00
43818;BME280;29868;47.360;18.984;2023-10-31T23:48:26;62388.28;;;9.20;100.00
43818;BME280;29868;47.360;18.984;2023-10-31T23:50:51;62378.59;;;9.09;100.00
43818;BME280;29868;47.360;18.984;2023-10-31T23:53:16;62373.00;;;9.04;100.00
43818;BME280;29868;47.360;18.984;2023-10-31T23:55:42;62362.63;;;8.96;100.00
43818;BME280;29868;47.360;18.984;2023-10-31T23:58:12;62386.06;;;9.18;100.00
